Time;durP1;ratioP1;P1;durP2;ratioP2;P2;SDS_P1;SDS_P2;PMS_P1;PMS_P2;Temp;Humidity;BMP_temperature;BMP_pressure;BME280_temperature;BME280_humidity;BME280_pressure;Samples;Min_cycle;Max_cycle;Signal;HPM_P1;HPM_P2
2023/11/08 00:01:15;;;;;;;8.07;2.40;;;8.40;99.90;;;;;;4974839;28;20043;-67
2023/11/08 00:03:42;;;;;;;11.05;1.65;;;8.30;99.90;;;;;;4983562;28;20042;-68
2023/11/08 00:06:09;;;;;;;10.93;1.95;;;8.30;99.90;;;;;;4977098;28;20561;-68
2023/11/08 00:08:36;;;;;;;11.13;2.75;;;8.30;99.90;;;;;;4981775;28;20054;-68
2023/11/08 00:11:03;;;;;;;7.90;2.30;;;8.40;99.90;;;;;;4982293;28;20042;-69
2023/11/08 00:13:30;;;;;;;6.32;2.45;;;8.40;99.90;;;;;;4980357;28;20057;-67
2023/11/08 00:15:58;;;;;;;7.40;1.60;;;8.40;99.90;;;;;;4983440;28;20046;-68
2023/11/08 00:18:26;;;;;;;10.80;1.73;;;8.40;99.90;;;;;;4980740;28;20155;-68
2023/11/08 00:20:53;;;;;;;7.00;2.25;;;8.40;99.90;;;;;;4983563;28;20051;-67
2023/11/08 00:23:20;;;;;;;9.65;1.75;;;8.40;99.90;;;;;;4975958;28;20043;-68
2023/11/08 00:25:47;;;;;;;15.23;1.92;;;8.40;99.90;;;;;;4967033;28;20058;-68
2023/11/08 00:28:14;;;;;;;6.15;2.13;;;8.40;99.90;;;;;;4969470;28;20057;-68
2023/11/08 00:30:41;;;;;;;9.15;2.67;;;8.40;99.90;;;;;;4967634;28;20085;-68
2023/11/08 00:33:08;;;;;;;9.95;2.00;;;8.20;99.90;;;;;;4964186;28;20409;-69
2023/11/08 00:35:35;;;;;;;8.15;1.60;;;8.40;99.90;;;;;;4970410;28;20043;-69
2023/11/08 00:38:02;;;;;;;10.18;1.70;;;8.40;99.90;;;;;;4967533;28;20109;-68
2023/11/08 00:40:28;;;;;;;5.97;1.90;;;8.40;99.90;;;;;;4971795;28;20051;-68
2023/11/08 00:42:55;;;;;;;7.63;1.63;;;8.40;99.90;;;;;;4967824;28;20047;-69
2023/11/08 00:45:22;;;;;;;8.40;1.63;;;8.40;99.90;;;;;;4971575;28;20097;-68
2023/11/08 00:47:50;;;;;;;9.87;1.93;;;8.40;99.90;;;;;;4617231;28;9999923;-68
2023/11/08 00:50:17;;;;;;;11.70;1.65;;;8.40;99.90;;;;;;4971387;28;20053;-70
2023/11/08 00:52:45;;;;;;;10.63;2.22;;;8.40;99.90;;;;;;4963680;28;20054;-69
2023/11/08 00:55:12;;;;;;;8.23;1.65;;;8.40;99.90;;;;;;4978894;28;20051;-68
2023/11/08 00:57:38;;;;;;;6.80;1.85;;;8.40;99.90;;;;;;4980879;28;20055;-68
2023/11/08 01:00:08;;;;;;;6.53;1.27;;;8.40;99.90;;;;;;4979733;28;20121;-68
2023/11/08 01:02:36;;;;;;;10.98;3.10;;;8.40;99.90;;;;;;4979894;28;20050;-67
2023/11/08 01:05:04;;;;;;;5.88;1.63;;;8.40;99.90;;;;;;4970200;28;20106;-68
2023/11/08 01:07:32;;;;;;;8.55;1.92;;;8.40;99.90;;;;;;4961764;28;20304;-67
2023/11/08 01:09:58;;;;;;;11.63;1.83;;;8.40;99.90;;;;;;4970726;28;20521;-68
2023/11/08 01:12:25;;;;;;;9.80;1.17;;;8.40;99.90;;;;;;4972695;28;20117;-67
2023/11/08 01:14:52;;;;;;;7.85;1.58;;;8.40;99.90;;;;;;4966021;28;20051;-69
2023/11/08 01:17:19;;;;;;;8.60;1.63;;;8.40;99.90;;;;;;4969190;28;20043;-68
2023/11/08 01:19:46;;;;;;;8.82;1.85;;;8.40;99.90;;;;;;4968725;28;20054;-70
2023/11/08 01:22:13;;;;;;;6.50;1.30;;;8.50;99.90;;;;;;4966543;28;20055;-67
2023/11/08 01:24:41;;;;;;;5.80;1.85;;;8.40;99.90;;;;;;4965208;28;20055;-68
2023/11/08 01:27:08;;;;;;;7.72;1.27;;;8.40;99.90;;;;;;4969826;28;20069;-67
2023/11/08 01:29:35;;;;;;;6.88;1.48;;;8.40;99.90;;;;;;4983067;28;20047;-69
2023/11/08 01:32:02;;;;;;;4.80;1.55;;;8.40;99.90;;;;;;4972802;28;20065;-69
2023/11/08 01:34:29;;;;;;;9.05;1.58;;;8.40;99.90;;;;;;4984460;28;20057;-68
2023/11/08 01:36:56;;;;;;;5.85;1.63;;;8.40;99.90;;;;;;4977804;28;20047;-68
2023/11/08 01:39:23;;;;;;;5.50;1.50;;;8.40;99.90;;;;;;4983071;28;20058;-68
2023/11/08 01:41:51;;;;;;;6.57;1.38;;;8.40;99.90;;;;;;4978110;28;20046;-70
2023/11/08 01:44:19;;;;;;;13.77;2.90;;;8.30;99.90;;;;;;4979482;28;20441;-68
2023/11/08 01:46:50;;;;;;;7.22;1.77;;;8.30;99.90;;;;;;4980665;28;20050;-68
2023/11/08 01:49:18;;;;;;;6.90;1.50;;;8.30;99.90;;;;;;4969859;28;20054;-69
2023/11/08 01:51:45;;;;;;;9.30;2.55;;;8.30;99.90;;;;;;4980144;28;20058;-68
2023/11/08 01:54:12;;;;;;;10.32;2.13;;;8.20;99.90;;;;;;4961136;28;20050;-69
2023/11/08 01:56:39;;;;;;;9.95;2.78;;;8.20;99.90;;;;;;4979385;28;20438;-69
2023/11/08 01:59:08;;;;;;;12.25;1.70;;;8.20;99.90;;;;;;4960256;28;20079;-70
2023/11/08 02:01:34;;;;;;;7.10;2.10;;;8.20;99.90;;;;;;4975930;28;20047;-68
2023/11/08 02:04:01;;;;;;;9.18;1.67;;;8.20;99.90;;;;;;4981196;28;20047;-67
2023/11/08 02:06:28;;;;;;;5.88;1.67;;;8.10;99.90;;;;;;4973166;28;20038;-67
2023/11/08 02:08:55;;;;;;;3.40;1.48;;;8.20;99.90;;;;;;4983914;28;20050;-67
2023/11/08 02:11:23;;;;;;;11.45;1.48;;;8.20;99.90;;;;;;4972517;28;20474;-68
2023/11/08 02:13:50;;;;;;;9.38;2.80;;;8.20;99.90;;;;;;4984764;28;20046;-68
2023/11/08 02:16:16;;;;;;;7.35;2.00;;;8.30;99.90;;;;;;4971603;28;20109;-68
2023/11/08 02:18:43;;;;;;;4.57;1.20;;;8.20;99.90;;;;;;4982770;28;20054;-68
2023/11/08 02:21:13;;;;;;;3.80;1.58;;;8.30;99.90;;;;;;4973992;28;20051;-67
2023/11/08 02:23:40;;;;;;;9.25;1.63;;;8.20;99.90;;;;;;4981641;28;20066;-68
2023/11/08 02:26:07;;;;;;;7.22;1.60;;;8.20;99.90;;;;;;4974158;28;20414;-69
2023/11/08 02:28:36;;;;;;;4.95;1.40;;;8.20;99.90;;;;;;4975589;28;20101;-69
2023/11/08 02:31:03;;;;;;;3.78;1.25;;;8.30;99.90;;;;;;4970943;28;20043;-68
2023/11/08 02:33:30;;;;;;;11.30;1.38;;;8.30;99.90;;;;;;4977160;28;20063;-69
2023/11/08 02:35:58;;;;;;;13.27;2.10;;;8.30;99.90;;;;;;4971844;28;20097;-69
2023/11/08 02:38:25;;;;;;;6.10;1.73;;;8.20;99.90;;;;;;4978590;28;20055;-69
2023/11/08 02:40:52;;;;;;;12.85;2.38;;;8.20;99.90;;;;;;4980374;28;20054;-69
2023/11/08 02:43:19;;;;;;;5.10;1.33;;;8.30;99.90;;;;;;4977498;28;20512;-69
2023/11/08 02:45:46;;;;;;;5.07;1.20;;;8.30;99.90;;;;;;4971397;28;20042;-69
2023/11/08 02:48:13;;;;;;;5.22;1.80;;;8.20;99.90;;;;;;4977395;28;20058;-69
2023/11/08 02:50:40;;;;;;;9.48;2.42;;;8.20;99.90;;;;;;4977936;28;20123;-68
2023/11/08 02:53:07;;;;;;;6.32;1.10;;;8.30;99.90;;;;;;4972844;28;20051;-67
2023/11/08 02:55:34;;;;;;;6.57;1.65;;;8.30;99.90;;;;;;4972671;28;20595;-67
2023/11/08 02:58:01;;;;;;;3.90;1.48;;;8.30;99.90;;;;;;4985145;28;20494;-68
2023/11/08 03:00:28;;;;;;;7.97;1.55;;;8.40;99.90;;;;;;4972602;28;20106;-68
2023/11/08 03:02:55;;;;;;;7.75;1.92;;;8.40;99.90;;;;;;4985198;28;20405;-68
2023/11/08 03:05:22;;;;;;;10.30;1.83;;;8.40;99.90;;;;;;4983881;28;20047;-67
2023/11/08 03:07:50;;;;;;;7.78;1.77;;;8.40;99.90;;;;;;4971488;28;20050;-68
2023/11/08 03:10:19;;;;;;;10.48;1.48;;;8.40;99.90;;;;;;4982504;28;20564;-72
2023/11/08 03:12:51;;;;;;;11.88;1.35;;;8.40;99.90;;;;;;4973689;28;20047;-70
2023/11/08 03:15:21;;;;;;;9.70;1.75;;;8.30;99.90;;;;;;4980941;28;20050;-68
2023/11/08 03:17:48;;;;;;;10.25;1.33;;;8.30;99.90;;;;;;4974610;28;20510;-68
2023/11/08 03:20:15;;;;;;;7.47;1.25;;;8.30;99.90;;;;;;4979875;28;20061;-67
2023/11/08 03:22:42;;;;;;;8.40;1.60;;;8.30;99.90;;;;;;4976146;28;20391;-68
2023/11/08 03:25:13;;;;;;;9.70;1.67;;;8.30;99.90;;;;;;4977910;28;20062;-68
2023/11/08 03:27:41;;;;;;;6.55;1.73;;;8.30;99.90;;;;;;4978891;28;20053;-68
2023/11/08 03:30:10;;;;;;;9.80;1.67;;;8.30;99.90;;;;;;4977907;28;20102;-68
2023/11/08 03:32:38;;;;;;;9.10;1.73;;;8.30;99.90;;;;;;4980356;28;20078;-67
2023/11/08 03:35:05;;;;;;;9.00;1.75;;;8.30;99.90;;;;;;4975357;28;20055;-68
2023/11/08 03:37:36;;;;;;;8.85;1.83;;;8.40;99.90;;;;;;4978898;28;20054;-67
2023/11/08 03:40:11;;;;;;;7.00;2.20;;;8.40;99.90;;;;;;4975374;28;20050;-68
2023/11/08 03:42:39;;;;;;;9.98;1.85;;;8.40;99.90;;;;;;4985829;28;20074;-68
2023/11/08 03:45:07;;;;;;;4.30;1.92;;;8.40;99.90;;;;;;4983546;28;20058;-68
2023/11/08 03:47:34;;;;;;;6.75;1.60;;;8.50;99.90;;;;;;4978768;28;20046;-68
2023/11/08 03:50:01;;;;;;;9.25;1.77;;;8.50;99.90;;;;;;4968689;28;20121;-68
2023/11/08 03:52:28;;;;;;;8.02;1.33;;;8.50;99.90;;;;;;4978008;28;20050;-67
2023/11/08 03:54:55;;;;;;;6.30;1.55;;;8.50;99.90;;;;;;4987260;28;20050;-67
2023/11/08 03:57:22;;;;;;;9.38;2.03;;;8.50;99.90;;;;;;4975713;28;20051;-68
2023/11/08 03:59:53;;;;;;;5.38;1.10;;;8.50;99.90;;;;;;4989384;28;20117;-67
2023/11/08 04:02:21;;;;;;;6.72;1.85;;;8.60;99.90;;;;;;4971079;28;20358;-68
2023/11/08 04:04:48;;;;;;;12.30;2.20;;;8.60;99.90;;;;;;4981989;28;20682;-68
2023/11/08 04:07:15;;;;;;;12.98;1.95;;;8.60;99.90;;;;;;4974540;28;20513;-67
2023/11/08 04:09:42;;;;;;;4.63;1.42;;;8.60;99.90;;;;;;4986370;28;20046;-68
2023/11/08 04:12:10;;;;;;;10.00;1.55;;;8.60;99.90;;;;;;4980091;28;20053;-68
2023/11/08 04:14:37;;;;;;;4.40;1.30;;;8.60;99.90;;;;;;4976784;28;20077;-67
2023/11/08 04:17:04;;;;;;;8.55;2.72;;;8.60;99.90;;;;;;4982421;28;20046;-69
2023/11/08 04:19:31;;;;;;;7.10;1.33;;;8.70;99.90;;;;;;4980286;28;20055;-69
2023/11/08 04:21:59;;;;;;;8.25;1.40;;;8.70;99.90;;;;;;4975054;28;20050;-70
2023/11/08 04:24:25;;;;;;;5.32;1.40;;;8.70;99.90;;;;;;4980804;28;20047;-68
2023/11/08 04:26:52;;;;;;;11.98;1.70;;;8.70;99.90;;;;;;4981471;28;20384;-68
2023/11/08 04:29:20;;;;;;;7.93;1.80;;;8.70;99.90;;;;;;4976710;28;20058;-68
2023/11/08 04:31:46;;;;;;;13.75;2.28;;;8.80;99.90;;;;;;4973941;28;20258;-67
2023/11/08 04:34:14;;;;;;;8.18;0.88;;;8.80;99.90;;;;;;4981049;28;20086;-68
2023/11/08 04:36:43;;;;;;;7.90;2.28;;;8.90;99.90;;;;;;4973534;28;20053;-68
2023/11/08 04:39:25;;;;;;;12.75;1.58;;;8.90;99.90;;;;;;4977040;28;20061;-68
2023/11/08 04:41:52;;;;;;;9.88;1.42;;;9.00;99.90;;;;;;4982562;28;20125;-68
2023/11/08 04:44:19;;;;;;;7.55;1.30;;;9.10;99.90;;;;;;4976242;28;20046;-67
2023/11/08 04:46:46;;;;;;;12.00;2.47;;;9.10;99.90;;;;;;4970270;28;20451;-68
2023/11/08 04:49:13;;;;;;;5.38;1.20;;;9.10;99.90;;;;;;4985773;28;20138;-68
2023/11/08 04:51:41;;;;;;;7.22;1.75;;;9.20;99.90;;;;;;4972261;28;20050;-67
2023/11/08 04:54:08;;;;;;;10.55;2.55;;;9.20;99.90;;;;;;4985560;28;20085;-67
2023/11/08 04:56:35;;;;;;;8.93;1.60;;;9.20;99.90;;;;;;4972806;28;20390;-67
2023/11/08 04:59:02;;;;;;;11.40;1.60;;;9.20;99.90;;;;;;4985253;28;20050;-69
2023/11/08 05:01:29;;;;;;;12.10;2.13;;;9.20;99.90;;;;;;4975757;28;20135;-69
2023/11/08 05:03:59;;;;;;;7.63;2.00;;;9.20;99.90;;;;;;4980978;28;20046;-67
2023/11/08 05:06:27;;;;;;;7.63;1.73;;;9.20;99.90;;;;;;4983987;28;20148;-67
2023/11/08 05:08:54;;;;;;;14.32;1.45;;;9.30;99.90;;;;;;4976763;28;20074;-67
2023/11/08 05:11:21;;;;;;;10.15;1.60;;;9.30;99.90;;;;;;4981090;28;20057;-68
2023/11/08 05:13:48;;;;;;;10.68;1.40;;;9.40;99.90;;;;;;4979984;28;20482;-68
2023/11/08 05:16:20;;;;;;;7.57;2.08;;;9.30;99.90;;;;;;4980210;28;20186;-68
2023/11/08 05:18:48;;;;;;;10.50;2.00;;;9.30;99.90;;;;;;4977446;28;20426;-68
2023/11/08 05:21:14;;;;;;;4.97;1.20;;;9.40;99.90;;;;;;4962858;28;20051;-67
2023/11/08 05:23:41;;;;;;;4.80;1.40;;;9.30;99.90;;;;;;4974135;28;20409;-68
2023/11/08 05:26:08;;;;;;;5.80;1.30;;;9.40;99.90;;;;;;4978732;28;20501;-67
2023/11/08 05:28:35;;;;;;;6.72;1.33;;;9.40;99.90;;;;;;4982032;28;20509;-68
2023/11/08 05:31:02;;;;;;;9.65;1.60;;;9.50;99.90;;;;;;4975242;28;20085;-68
2023/11/08 05:33:29;;;;;;;12.50;1.63;;;9.50;99.90;;;;;;4979869;28;20042;-66
2023/11/08 05:35:56;;;;;;;11.50;2.35;;;9.50;99.90;;;;;;4981978;28;20061;-66
2023/11/08 05:38:23;;;;;;;8.27;1.38;;;9.50;99.90;;;;;;4974005;28;20047;-67
2023/11/08 05:40:51;;;;;;;10.52;1.92;;;9.50;99.90;;;;;;4985518;28;20057;-68
2023/11/08 05:43:18;;;;;;;9.77;2.40;;;9.60;99.90;;;;;;4956940;28;20493;-69
2023/11/08 05:45:45;;;;;;;8.15;1.67;;;9.60;99.90;;;;;;4968669;28;20054;-68
2023/11/08 05:48:11;;;;;;;10.73;2.47;;;9.60;99.90;;;;;;4971293;28;20050;-68
2023/11/08 05:50:43;;;;;;;8.43;1.75;;;9.60;99.90;;;;;;4971078;28;20046;-69
2023/11/08 05:53:14;;;;;;;8.43;1.13;;;9.70;99.90;;;;;;4969255;28;20145;-69
2023/11/08 05:55:41;;;;;;;10.00;1.75;;;9.60;99.90;;;;;;4976964;28;20053;-69
2023/11/08 05:58:08;;;;;;;7.30;1.42;;;9.60;99.90;;;;;;4982926;28;20052;-69
2023/11/08 06:00:40;;;;;;;6.38;1.40;;;9.70;99.90;;;;;;4976662;28;20046;-69
2023/11/08 06:03:07;;;;;;;6.28;1.55;;;9.70;99.90;;;;;;4982141;28;20062;-69
2023/11/08 06:05:34;;;;;;;10.77;1.85;;;9.70;99.90;;;;;;4978514;28;20533;-69
2023/11/08 06:08:03;;;;;;;11.25;3.00;;;9.70;99.90;;;;;;4979743;28;20058;-69
2023/11/08 06:10:31;;;;;;;14.90;1.75;;;9.70;99.90;;;;;;4980043;28;20045;-69
2023/11/08 06:12:58;;;;;;;10.63;1.90;;;9.70;99.90;;;;;;4978241;28;20053;-70
2023/11/08 06:15:25;;;;;;;14.13;3.00;;;9.60;99.90;;;;;;4978626;28;20055;-69
2023/11/08 06:17:54;;;;;;;13.70;2.15;;;9.60;99.90;;;;;;4982655;28;20062;-67
2023/11/08 06:20:22;;;;;;;13.70;1.45;;;9.60;99.90;;;;;;4956788;28;20518;-69
2023/11/08 06:22:49;;;;;;;17.65;2.15;;;9.50;99.90;;;;;;4957341;28;20039;-69
2023/11/08 06:25:16;;;;;;;10.25;1.92;;;9.60;99.90;;;;;;4974841;28;20046;-68
2023/11/08 06:27:43;;;;;;;9.77;1.70;;;9.50;99.90;;;;;;4979634;28;20142;-69
2023/11/08 06:30:11;;;;;;;11.23;1.73;;;9.50;99.90;;;;;;4973408;28;20061;-69
2023/11/08 06:32:38;;;;;;;9.35;1.95;;;9.50;99.90;;;;;;4982159;28;20083;-69
2023/11/08 06:35:07;;;;;;;9.93;1.83;;;9.50;99.90;;;;;;4968772;28;20133;-69
2023/11/08 06:37:34;;;;;;;11.63;1.90;;;9.50;99.90;;;;;;4972793;28;20520;-69
2023/11/08 06:40:01;;;;;;;10.57;1.85;;;9.50;99.90;;;;;;4982758;28;20481;-69
2023/11/08 06:42:28;;;;;;;9.60;1.73;;;9.50;99.90;;;;;;4974942;28;20124;-70
2023/11/08 06:44:55;;;;;;;13.77;2.17;;;9.50;99.90;;;;;;4970405;28;20042;-70
2023/11/08 06:47:21;;;;;;;12.00;1.70;;;9.60;99.90;;;;;;4983967;28;20047;-69
2023/11/08 06:49:52;;;;;;;21.23;2.40;;;9.60;99.90;;;;;;4971726;28;20051;-69
2023/11/08 06:52:18;;;;;;;13.60;1.55;;;9.70;99.90;;;;;;4974958;28;20548;-68
2023/11/08 06:54:45;;;;;;;13.40;2.47;;;9.70;99.90;;;;;;4964993;28;20051;-69
2023/11/08 06:57:12;;;;;;;7.22;1.65;;;9.70;99.90;;;;;;4973136;28;20043;-68
2023/11/08 06:59:39;;;;;;;13.85;2.47;;;9.70;99.90;;;;;;4963841;28;20047;-69
2023/11/08 07:02:06;;;;;;;12.13;2.55;;;9.80;99.90;;;;;;4975730;28;20444;-69
2023/11/08 07:04:33;;;;;;;13.80;4.00;;;9.80;99.90;;;;;;4979803;28;20034;-68
2023/11/08 07:07:01;;;;;;;13.90;2.15;;;9.90;99.90;;;;;;4977443;28;20197;-69
2023/11/08 07:09:28;;;;;;;14.68;2.83;;;9.90;99.90;;;;;;4979901;28;20043;-69
2023/11/08 07:11:55;;;;;;;16.10;2.63;;;10.00;99.90;;;;;;4975975;28;20050;-69
2023/11/08 07:14:22;;;;;;;13.20;2.33;;;10.00;99.90;;;;;;4974620;28;20035;-69
2023/11/08 07:16:49;;;;;;;15.75;2.53;;;10.00;99.90;;;;;;4986625;28;20497;-70
2023/11/08 07:19:17;;;;;;;19.38;2.28;;;10.10;99.90;;;;;;4977541;28;20062;-71
2023/11/08 07:21:44;;;;;;;12.65;3.35;;;10.10;99.90;;;;;;4988325;28;20525;-69
2023/11/08 07:24:11;;;;;;;8.85;1.88;;;10.10;99.90;;;;;;4975017;28;20050;-70
2023/11/08 07:26:38;;;;;;;15.88;2.35;;;10.20;99.90;;;;;;4972727;28;20121;-69
2023/11/08 07:29:05;;;;;;;11.32;2.10;;;10.20;99.90;;;;;;4987619;28;20080;-69
2023/11/08 07:31:32;;;;;;;8.88;2.10;;;10.20;99.90;;;;;;4974326;28;20051;-71
2023/11/08 07:34:00;;;;;;;25.52;2.60;;;10.20;99.90;;;;;;4974341;28;20058;-70
2023/11/08 07:36:29;;;;;;;13.38;2.03;;;10.20;99.90;;;;;;4987235;28;20129;-67
2023/11/08 07:39:04;;;;;;;20.83;2.00;;;10.30;99.90;;;;;;4979846;28;20138;-68
2023/11/08 07:41:32;;;;;;;9.68;2.45;;;10.30;99.90;;;;;;4972260;28;20133;-68
2023/11/08 07:44:02;;;;;;;9.38;1.88;;;10.20;99.90;;;;;;4979748;28;20300;-67
2023/11/08 07:46:30;;;;;;;14.73;2.75;;;10.30;99.90;;;;;;4967857;28;20557;-69
2023/11/08 07:48:57;;;;;;;11.73;2.08;;;10.30;99.90;;;;;;4977078;28;20047;-68
2023/11/08 07:51:28;;;;;;;12.32;1.92;;;10.30;99.90;;;;;;4981217;28;20113;-68
2023/11/08 07:53:59;;;;;;;10.38;2.33;;;10.30;99.90;;;;;;4979713;28;20407;-68
2023/11/08 07:56:26;;;;;;;14.38;1.80;;;10.40;99.90;;;;;;4966361;28;20105;-69
2023/11/08 07:58:53;;;;;;;10.30;2.63;;;10.40;99.90;;;;;;4979144;28;20050;-67
2023/11/08 08:01:20;;;;;;;12.48;2.30;;;10.40;99.90;;;;;;4982469;28;20105;-66
2023/11/08 08:03:48;;;;;;;16.25;2.20;;;10.40;99.90;;;;;;4978709;28;20046;-67
2023/11/08 08:06:15;;;;;;;10.77;1.60;;;10.40;99.90;;;;;;4973514;28;20055;-65
2023/11/08 08:08:43;;;;;;;10.48;1.73;;;10.50;99.90;;;;;;4975232;28;20109;-65
2023/11/08 08:11:11;;;;;;;13.32;2.75;;;10.50;99.90;;;;;;4977916;28;20091;-65
2023/11/08 08:13:38;;;;;;;12.68;1.83;;;10.50;99.90;;;;;;4986655;28;20043;-66
2023/11/08 08:16:06;;;;;;;5.35;1.65;;;10.50;99.90;;;;;;4971000;28;20054;-65
2023/11/08 08:18:41;;;;;;;5.95;1.58;;;10.50;99.90;;;;;;4974113;28;20047;-66
2023/11/08 08:21:08;;;;;;;6.45;1.13;;;10.60;99.90;;;;;;4986945;28;20058;-66
2023/11/08 08:23:34;;;;;;;9.18;3.53;;;10.60;99.90;;;;;;4973061;28;20097;-66
2023/11/08 08:26:01;;;;;;;10.15;1.95;;;10.60;99.90;;;;;;4969725;28;20051;-66
2023/11/08 08:28:34;;;;;;;7.80;1.45;;;10.60;99.90;;;;;;4640181;28;10000307;-67
2023/11/08 08:31:03;;;;;;;9.23;1.65;;;10.70;99.90;;;;;;4973333;28;20078;-66
2023/11/08 08:33:30;;;;;;;7.88;1.58;;;10.70;99.90;;;;;;4981882;28;20522;-68
2023/11/08 08:35:58;;;;;;;12.52;1.90;;;10.70;99.90;;;;;;4982826;28;20575;-67
2023/11/08 08:38:25;;;;;;;10.65;1.58;;;10.70;99.90;;;;;;4971832;28;20157;-67
2023/11/08 08:40:52;;;;;;;7.10;1.40;;;10.80;99.90;;;;;;4978322;28;20094;-67
2023/11/08 08:43:20;;;;;;;8.68;1.58;;;10.80;99.90;;;;;;4975754;28;20101;-67
2023/11/08 08:45:47;;;;;;;8.98;2.22;;;10.70;99.90;;;;;;4975637;28;20053;-69
2023/11/08 08:48:14;;;;;;;8.63;2.22;;;10.80;99.90;;;;;;4971632;28;20536;-68
2023/11/08 08:50:41;;;;;;;6.10;1.75;;;10.80;99.90;;;;;;4975953;28;20046;-68
2023/11/08 08:53:08;;;;;;;5.57;1.60;;;10.80;99.90;;;;;;4978413;28;20117;-68
2023/11/08 08:55:38;;;;;;;16.25;1.98;;;10.90;99.90;;;;;;4972525;28;20054;-68
2023/11/08 08:58:08;;;;;;;6.80;1.75;;;10.90;99.90;;;;;;4976521;28;20141;-68
2023/11/08 09:00:35;;;;;;;12.55;1.85;;;10.90;99.90;;;;;;4979203;28;20073;-68
2023/11/08 09:03:03;;;;;;;5.68;1.90;;;10.90;99.90;;;;;;4974515;28;20057;-67
2023/11/08 09:05:30;;;;;;;6.32;1.25;;;11.00;99.90;;;;;;4981225;28;20497;-68
2023/11/08 09:07:57;;;;;;;13.63;3.55;;;11.00;99.90;;;;;;4973056;28;20299;-68
2023/11/08 09:10:24;;;;;;;10.68;1.65;;;11.00;99.90;;;;;;4976611;28;20529;-68
2023/11/08 09:12:51;;;;;;;5.85;1.60;;;11.10;99.90;;;;;;4970518;28;20121;-71
2023/11/08 09:15:18;;;;;;;7.97;1.25;;;11.10;99.90;;;;;;4984820;28;20097;-69
2023/11/08 09:17:46;;;;;;;4.95;1.60;;;11.10;99.90;;;;;;4965608;28;20051;-69
2023/11/08 09:20:13;;;;;;;7.90;1.10;;;11.10;99.90;;;;;;4982919;28;20569;-69
2023/11/08 09:22:44;;;;;;;8.88;1.45;;;11.10;99.90;;;;;;4972596;28;20064;-68
2023/11/08 09:25:13;;;;;;;5.63;1.27;;;11.10;99.90;;;;;;4969253;28;20493;-68
2023/11/08 09:27:40;;;;;;;6.85;1.15;;;11.20;99.90;;;;;;4967468;28;20043;-68
2023/11/08 09:30:08;;;;;;;6.18;1.38;;;11.20;99.90;;;;;;4978168;28;20141;-67
2023/11/08 09:32:35;;;;;;;6.85;1.20;;;11.20;99.90;;;;;;4974444;28;20050;-68
2023/11/08 09:35:02;;;;;;;3.53;0.73;;;11.20;99.90;;;;;;4977693;28;20149;-69
2023/11/08 09:37:29;;;;;;;4.18;1.10;;;11.20;99.90;;;;;;4974840;28;20050;-69
2023/11/08 09:39:56;;;;;;;5.40;0.90;;;11.20;99.90;;;;;;4975511;28;20059;-67
2023/11/08 09:42:26;;;;;;;5.65;1.10;;;11.30;99.90;;;;;;4974641;28;20053;-69
2023/11/08 09:44:55;;;;;;;6.22;1.00;;;11.30;99.90;;;;;;4960454;28;20050;-68
2023/11/08 09:47:22;;;;;;;5.38;1.13;;;11.30;99.90;;;;;;4958026;28;20066;-68
2023/11/08 09:49:49;;;;;;;3.53;1.08;;;11.30;99.90;;;;;;4977629;28;20478;-67
2023/11/08 09:52:17;;;;;;;7.00;1.02;;;11.40;99.90;;;;;;4973967;28;20160;-68
2023/11/08 09:54:44;;;;;;;5.15;0.82;;;11.40;99.90;;;;;;4977710;28;20102;-68
2023/11/08 09:57:12;;;;;;;3.75;0.82;;;11.40;99.90;;;;;;4972235;28;20054;-67
2023/11/08 09:59:45;;;;;;;2.28;0.65;;;11.40;99.90;;;;;;5082357;28;20394;-68
2023/11/08 10:02:12;;;;;;;1.08;0.60;;;11.50;99.90;;;;;;5063360;28;20047;-68
2023/11/08 10:04:39;;;;;;;1.63;0.60;;;11.60;99.90;;;;;;5061555;28;20318;-68
2023/11/08 10:07:12;;;;;;;4.68;1.02;;;11.60;99.90;;;;;;5065177;28;20127;-68
2023/11/08 10:09:39;;;;;;;0.77;0.52;;;11.70;99.90;;;;;;5082268;28;20072;-67
2023/11/08 10:12:08;;;;;;;3.15;0.60;;;11.70;99.90;;;;;;5082102;28;20080;-68
2023/11/08 10:14:37;;;;;;;1.83;0.60;;;11.80;99.90;;;;;;5082068;28;20040;-68
2023/11/08 10:17:04;;;;;;;6.72;0.95;;;11.70;99.90;;;;;;5072964;28;20083;-67
2023/11/08 10:19:45;;;;;;;2.55;0.98;;;11.70;99.90;;;;;;5082139;28;20048;-68
2023/11/08 10:22:20;;;;;;;5.60;0.80;;;11.70;99.90;;;;;;5081991;28;20059;-67
2023/11/08 10:24:55;;;;;;;3.05;1.00;;;11.70;99.90;;;;;;5081739;28;20296;-68
2023/11/08 10:27:25;;;;;;;5.25;0.75;;;11.80;99.90;;;;;;5080564;28;20414;-68
2023/11/08 10:29:54;;;;;;;4.10;1.08;;;11.90;99.90;;;;;;5061107;28;20072;-68
2023/11/08 10:32:24;;;;;;;5.25;0.77;;;11.90;99.90;;;;;;5081144;28;20044;-68
2023/11/08 10:34:51;;;;;;;3.13;0.77;;;11.90;99.90;;;;;;5081173;28;20135;-69
2023/11/08 10:37:27;;;;;;;3.78;1.02;;;11.90;99.90;;;;;;5081691;28;20088;-69
2023/11/08 10:39:56;;;;;;;3.38;0.55;;;11.90;99.90;;;;;;5079599;28;20265;-69
2023/11/08 10:42:26;;;;;;;2.97;0.80;;;11.90;99.90;;;;;;5063303;28;20052;-68
2023/11/08 10:45:06;;;;;;;2.47;0.55;;;11.90;99.90;;;;;;5081125;28;20059;-69
2023/11/08 10:47:34;;;;;;;2.17;0.70;;;12.00;99.90;;;;;;5081566;28;20091;-69
2023/11/08 10:50:01;;;;;;;4.90;0.80;;;12.00;99.90;;;;;;5062617;28;20071;-69
2023/11/08 10:52:28;;;;;;;7.32;1.40;;;12.10;99.90;;;;;;5045874;28;20139;-68
2023/11/08 10:54:55;;;;;;;3.35;0.60;;;12.10;99.90;;;;;;5080293;28;20052;-68
2023/11/08 10:57:22;;;;;;;3.67;0.90;;;12.10;99.90;;;;;;5081202;28;20064;-68
2023/11/08 10:59:51;;;;;;;9.07;1.10;;;12.10;99.90;;;;;;5062172;28;20526;-68
2023/11/08 11:02:28;;;;;;;4.22;0.90;;;12.20;99.90;;;;;;5046859;28;20529;-68
2023/11/08 11:04:58;;;;;;;3.47;0.93;;;12.20;99.90;;;;;;5079786;28;20066;-68
2023/11/08 11:07:25;;;;;;;3.33;1.08;;;12.20;99.90;;;;;;5063165;28;20064;-67
2023/11/08 11:09:55;;;;;;;3.50;0.88;;;12.20;99.90;;;;;;5074127;28;20560;-68
2023/11/08 11:12:29;;;;;;;3.25;0.70;;;12.20;99.90;;;;;;5033451;28;20479;-67
2023/11/08 11:14:56;;;;;;;4.25;0.95;;;12.20;99.90;;;;;;5049588;28;20049;-68
2023/11/08 11:17:29;;;;;;;4.25;1.20;;;12.30;99.90;;;;;;5048624;28;20446;-67
2023/11/08 11:19:59;;;;;;;3.63;1.60;;;12.40;99.90;;;;;;5033704;28;20044;-68
2023/11/08 11:22:26;;;;;;;3.00;0.60;;;12.40;99.90;;;;;;5032640;28;20500;-67
2023/11/08 11:24:53;;;;;;;2.55;0.68;;;12.40;99.90;;;;;;5046711;28;20072;-68
2023/11/08 11:27:33;;;;;;;4.10;0.63;;;12.50;99.90;;;;;;5065580;28;20144;-69
2023/11/08 11:30:21;;;;;;;6.10;1.13;;;12.50;99.90;;;;;;5065459;28;20075;-68
2023/11/08 11:32:50;;;;;;;2.95;1.02;;;12.50;99.90;;;;;;5052608;28;20325;-66
2023/11/08 11:35:43;;;;;;;4.22;1.88;;;12.50;99.90;;;;;;5055967;28;20072;-68
2023/11/08 11:38:11;;;;;;;3.45;0.68;;;12.50;99.90;;;;;;5052445;28;20066;-68
2023/11/08 11:40:38;;;;;;;3.40;0.73;;;12.50;99.90;;;;;;5066391;28;20444;-68
2023/11/08 11:43:26;;;;;;;4.38;0.73;;;12.50;99.90;;;;;;5066189;28;20060;-69
2023/11/08 11:45:53;;;;;;;4.07;1.95;;;12.50;99.90;;;;;;5065332;28;20569;-68
2023/11/08 11:48:21;;;;;;;6.68;1.20;;;12.50;99.90;;;;;;5065352;28;20094;-68
2023/11/08 11:50:48;;;;;;;4.13;1.15;;;12.50;99.90;;;;;;5065599;28;20052;-68
2023/11/08 11:53:16;;;;;;;7.63;1.10;;;12.50;99.90;;;;;;5044375;28;20052;-67
2023/11/08 11:55:43;;;;;;;3.95;0.80;;;12.60;99.90;;;;;;5065983;28;20040;-68
2023/11/08 11:58:10;;;;;;;6.13;0.90;;;12.60;99.90;;;;;;5061150;28;20057;-68
2023/11/08 12:00:37;;;;;;;6.68;1.73;;;12.70;99.90;;;;;;5065994;28;20052;-69
2023/11/08 12:03:04;;;;;;;5.28;0.80;;;12.70;99.90;;;;;;5063823;28;20051;-68
2023/11/08 12:05:31;;;;;;;3.22;0.60;;;12.80;99.90;;;;;;5065524;28;20052;-68
2023/11/08 12:07:58;;;;;;;6.50;0.80;;;12.80;99.90;;;;;;5065736;28;20076;-68
2023/11/08 12:10:26;;;;;;;9.02;1.23;;;12.90;99.90;;;;;;5026449;28;20048;-67
2023/11/08 12:12:55;;;;;;;3.03;0.65;;;12.90;99.90;;;;;;5065319;28;20044;-68
2023/11/08 12:15:23;;;;;;;4.28;1.10;;;13.00;99.90;;;;;;5065460;28;20503;-68
2023/11/08 12:17:51;;;;;;;1.48;0.60;;;13.00;99.90;;;;;;5065284;28;20072;-68
2023/11/08 12:20:21;;;;;;;3.88;0.85;;;13.00;99.90;;;;;;5066059;28;20139;-68
2023/11/08 12:22:49;;;;;;;4.43;1.02;;;13.00;99.90;;;;;;5064339;28;20743;-69
2023/11/08 12:25:21;;;;;;;2.90;0.75;;;13.00;99.90;;;;;;5065556;28;20044;-67
2023/11/08 12:27:50;;;;;;;5.30;1.02;;;12.90;99.90;;;;;;5064844;28;20131;-67
2023/11/08 12:30:23;;;;;;;5.30;0.65;;;13.00;99.90;;;;;;5069054;28;20140;-67
2023/11/08 12:32:50;;;;;;;2.47;0.80;;;13.00;99.90;;;;;;5068166;28;20499;-67
2023/11/08 12:35:20;;;;;;;4.32;0.93;;;13.10;99.90;;;;;;5066944;28;20151;-66
2023/11/08 12:37:47;;;;;;;4.43;0.80;;;13.20;99.90;;;;;;5068961;28;20052;-67
2023/11/08 12:40:18;;;;;;;2.92;0.95;;;13.20;99.90;;;;;;5068018;28;20044;-68
2023/11/08 12:42:45;;;;;;;7.55;0.95;;;13.20;99.90;;;;;;5067799;28;20048;-68
2023/11/08 12:45:30;;;;;;;3.10;1.15;;;13.20;99.90;;;;;;5046965;28;20068;-67
2023/11/08 12:48:17;;;;;;;2.25;0.50;;;13.20;99.90;;;;;;5053198;28;20267;-68
2023/11/08 12:50:49;;;;;;;3.97;0.82;;;13.20;99.90;;;;;;5068384;28;20059;-68
2023/11/08 12:53:17;;;;;;;3.38;0.75;;;13.30;99.90;;;;;;5067689;28;20458;-68
2023/11/08 12:55:43;;;;;;;1.80;0.63;;;13.30;99.90;;;;;;5068354;28;20052;-66